sensor_id;sensor_type;location;lat;lon;timestamp;P1;durP1;ratioP1;P2;durP2;ratioP2
56429;SDS011;42332;52.136;20.666;2023-02-28T00:00:08;35.90;;;15.50;;
56429;SDS011;42332;52.136;20.666;2023-02-28T00:02:38;50.25;;;20.27;;
56429;SDS011;42332;52.136;20.666;2023-02-28T00:05:04;39.72;;;16.63;;
56429;SDS011;42332;52.136;20.666;2023-02-28T00:07:30;33.15;;;15.57;;
56429;SDS011;42332;52.136;20.666;2023-02-28T00:09:56;32.53;;;13.95;;
56429;SDS011;42332;52.136;20.666;2023-02-28T00:12:22;45.08;;;17.70;;
56429;SDS011;42332;52.136;20.666;2023-02-28T00:14:47;35.45;;;14.20;;
56429;SDS011;42332;52.136;20.666;2023-02-28T00:17:13;38.15;;;15.35;;
56429;SDS011;42332;52.136;20.666;2023-02-28T00:19:38;38.63;;;14.18;;
56429;SDS011;42332;52.136;20.666;2023-02-28T00:22:03;36.17;;;14.50;;
56429;SDS011;42332;52.136;20.666;2023-02-28T00:24:29;25.88;;;11.63;;
56429;SDS011;42332;52.136;20.666;2023-02-28T00:26:54;22.80;;;9.70;;
56429;SDS011;42332;52.136;20.666;2023-02-28T00:29:19;23.90;;;11.00;;
56429;SDS011;42332;52.136;20.666;2023-02-28T00:31:45;28.75;;;11.65;;
56429;SDS011;42332;52.136;20.666;2023-02-28T00:34:10;20.73;;;8.80;;
56429;SDS011;42332;52.136;20.666;2023-02-28T00:36:35;19.40;;;9.30;;
56429;SDS011;42332;52.136;20.666;2023-02-28T00:39:01;31.98;;;13.18;;
56429;SDS011;42332;52.136;20.666;2023-02-28T00:41:26;42.22;;;14.50;;
56429;SDS011;42332;52.136;20.666;2023-02-28T00:43:51;24.55;;;10.45;;
56429;SDS011;42332;52.136;20.666;2023-02-28T00:46:17;25.95;;;10.30;;
56429;SDS011;42332;52.136;20.666;2023-02-28T00:48:42;23.55;;;11.20;;
56429;SDS011;42332;52.136;20.666;2023-02-28T00:51:08;29.20;;;11.32;;
56429;SDS011;42332;52.136;20.666;2023-02-28T00:53:33;21.15;;;11.68;;
56429;SDS011;42332;52.136;20.666;2023-02-28T00:55:59;23.40;;;11.68;;
56429;SDS011;42332;52.136;20.666;2023-02-28T00:58:25;31.65;;;10.65;;
56429;SDS011;42332;52.136;20.666;2023-02-28T01:00:51;22.02;;;10.25;;
56429;SDS011;42332;52.136;20.666;2023-02-28T01:03:18;29.27;;;10.65;;
56429;SDS011;42332;52.136;20.666;2023-02-28T01:05:44;27.48;;;11.55;;
56429;SDS011;42332;52.136;20.666;2023-02-28T01:08:09;21.67;;;9.27;;
56429;SDS011;42332;52.136;20.666;2023-02-28T01:10:35;25.65;;;8.63;;
56429;SDS011;42332;52.136;20.666;2023-02-28T01:13:01;21.92;;;10.02;;
56429;SDS011;42332;52.136;20.666;2023-02-28T01:15:27;21.10;;;10.13;;
56429;SDS011;42332;52.136;20.666;2023-02-28T01:17:52;23.58;;;11.00;;
56429;SDS011;42332;52.136;20.666;2023-02-28T01:20:17;36.17;;;11.32;;
56429;SDS011;42332;52.136;20.666;2023-02-28T01:22:43;31.85;;;10.10;;
56429;SDS011;42332;52.136;20.666;2023-02-28T01:25:08;18.90;;;8.52;;
56429;SDS011;42332;52.136;20.666;2023-02-28T01:27:34;32.10;;;10.40;;
56429;SDS011;42332;52.136;20.666;2023-02-28T01:30:00;21.63;;;9.65;;
56429;SDS011;42332;52.136;20.666;2023-02-28T01:32:26;16.08;;;9.57;;
56429;SDS011;42332;52.136;20.666;2023-02-28T01:34:51;32.38;;;9.38;;
56429;SDS011;42332;52.136;20.666;2023-02-28T01:37:16;16.75;;;7.35;;
56429;SDS011;42332;52.136;20.666;2023-02-28T01:39:42;21.00;;;11.27;;
56429;SDS011;42332;52.136;20.666;2023-02-28T01:42:08;19.63;;;8.10;;
56429;SDS011;42332;52.136;20.666;2023-02-28T01:47:34;16.85;;;8.95;;
56429;SDS011;42332;52.136;20.666;2023-02-28T01:50:00;20.90;;;8.55;;
56429;SDS011;42332;52.136;20.666;2023-02-28T01:52:27;21.33;;;10.07;;
56429;SDS011;42332;52.136;20.666;2023-02-28T01:54:54;26.25;;;11.02;;
56429;SDS011;42332;52.136;20.666;2023-02-28T01:57:22;25.67;;;11.07;;
56429;SDS011;42332;52.136;20.666;2023-02-28T01:59:52;35.83;;;10.07;;
56429;SDS011;42332;52.136;20.666;2023-02-28T02:02:20;23.52;;;9.48;;
56429;SDS011;42332;52.136;20.666;2023-02-28T02:05:06;22.95;;;9.02;;
56429;SDS011;42332;52.136;20.666;2023-02-28T02:07:33;30.17;;;10.63;;
56429;SDS011;42332;52.136;20.666;2023-02-28T02:10:05;26.45;;;10.02;;
56429;SDS011;42332;52.136;20.666;2023-02-28T02:12:38;22.35;;;9.48;;
56429;SDS011;42332;52.136;20.666;2023-02-28T02:15:54;17.33;;;9.88;;
56429;SDS011;42332;52.136;20.666;2023-02-28T02:17:57;30.05;;;10.63;;
56429;SDS011;42332;52.136;20.666;2023-02-28T02:23:26;23.10;;;10.88;;
56429;SDS011;42332;52.136;20.666;2023-02-28T02:29:12;14.57;;;8.05;;
56429;SDS011;42332;52.136;20.666;2023-02-28T02:34:37;19.73;;;10.38;;
56429;SDS011;42332;52.136;20.666;2023-02-28T02:39:53;29.40;;;11.00;;
56429;SDS011;42332;52.136;20.666;2023-02-28T02:42:23;27.58;;;12.93;;
56429;SDS011;42332;52.136;20.666;2023-02-28T02:44:55;24.50;;;11.38;;
56429;SDS011;42332;52.136;20.666;2023-02-28T02:47:25;27.38;;;10.85;;
56429;SDS011;42332;52.136;20.666;2023-02-28T02:49:52;18.63;;;10.05;;
56429;SDS011;42332;52.136;20.666;2023-02-28T02:52:22;24.50;;;10.63;;
56429;SDS011;42332;52.136;20.666;2023-02-28T02:54:50;23.52;;;13.20;;
56429;SDS011;42332;52.136;20.666;2023-02-28T02:57:23;24.52;;;10.68;;
56429;SDS011;42332;52.136;20.666;2023-02-28T02:59:52;25.70;;;12.07;;
56429;SDS011;42332;52.136;20.666;2023-02-28T03:02:18;28.33;;;12.63;;
56429;SDS011;42332;52.136;20.666;2023-02-28T03:04:53;28.67;;;10.82;;
56429;SDS011;42332;52.136;20.666;2023-02-28T03:07:25;29.90;;;12.52;;
56429;SDS011;42332;52.136;20.666;2023-02-28T03:09:51;28.08;;;12.65;;
56429;SDS011;42332;52.136;20.666;2023-02-28T03:12:18;28.25;;;13.45;;
56429;SDS011;42332;52.136;20.666;2023-02-28T03:15:00;26.08;;;9.55;;
56429;SDS011;42332;52.136;20.666;2023-02-28T03:17:49;21.60;;;9.75;;
56429;SDS011;42332;52.136;20.666;2023-02-28T03:20:50;28.20;;;10.30;;
56429;SDS011;42332;52.136;20.666;2023-02-28T03:23:35;26.03;;;11.50;;
56429;SDS011;42332;52.136;20.666;2023-02-28T03:26:07;24.05;;;13.30;;
56429;SDS011;42332;52.136;20.666;2023-02-28T03:28:43;20.30;;;9.63;;
56429;SDS011;42332;52.136;20.666;2023-02-28T03:34:00;31.23;;;11.55;;
56429;SDS011;42332;52.136;20.666;2023-02-28T03:36:36;15.95;;;9.30;;
56429;SDS011;42332;52.136;20.666;2023-02-28T03:39:09;31.48;;;12.18;;
56429;SDS011;42332;52.136;20.666;2023-02-28T03:41:42;24.67;;;11.93;;
56429;SDS011;42332;52.136;20.666;2023-02-28T03:44:18;23.42;;;8.32;;
56429;SDS011;42332;52.136;20.666;2023-02-28T03:47:02;22.73;;;10.23;;
56429;SDS011;42332;52.136;20.666;2023-02-28T03:50:05;26.67;;;11.57;;
56429;SDS011;42332;52.136;20.666;2023-02-28T03:52:29;16.77;;;8.73;;
56429;SDS011;42332;52.136;20.666;2023-02-28T03:54:58;22.25;;;9.63;;
56429;SDS011;42332;52.136;20.666;2023-02-28T03:57:32;21.92;;;9.20;;
56429;SDS011;42332;52.136;20.666;2023-02-28T04:00:07;29.05;;;11.38;;
56429;SDS011;42332;52.136;20.666;2023-02-28T04:02:35;21.85;;;10.05;;
56429;SDS011;42332;52.136;20.666;2023-02-28T04:05:01;26.55;;;10.88;;
56429;SDS011;42332;52.136;20.666;2023-02-28T04:07:28;16.48;;;10.15;;
56429;SDS011;42332;52.136;20.666;2023-02-28T04:09:54;17.80;;;10.18;;
56429;SDS011;42332;52.136;20.666;2023-02-28T04:12:20;22.35;;;12.00;;
56429;SDS011;42332;52.136;20.666;2023-02-28T04:14:47;18.77;;;9.95;;
56429;SDS011;42332;52.136;20.666;2023-02-28T04:17:13;23.60;;;10.45;;
56429;SDS011;42332;52.136;20.666;2023-02-28T04:19:38;26.70;;;10.05;;
56429;SDS011;42332;52.136;20.666;2023-02-28T04:22:04;27.08;;;11.23;;
56429;SDS011;42332;52.136;20.666;2023-02-28T04:24:29;28.13;;;11.75;;
56429;SDS011;42332;52.136;20.666;2023-02-28T04:26:55;27.27;;;10.07;;
56429;SDS011;42332;52.136;20.666;2023-02-28T04:29:28;36.95;;;11.95;;
56429;SDS011;42332;52.136;20.666;2023-02-28T04:31:55;42.97;;;12.70;;
56429;SDS011;42332;52.136;20.666;2023-02-28T04:34:25;25.38;;;9.27;;
56429;SDS011;42332;52.136;20.666;2023-02-28T04:36:52;21.48;;;11.30;;
56429;SDS011;42332;52.136;20.666;2023-02-28T04:39:19;25.15;;;10.75;;
56429;SDS011;42332;52.136;20.666;2023-02-28T04:41:45;18.25;;;10.25;;
56429;SDS011;42332;52.136;20.666;2023-02-28T04:44:11;32.78;;;11.63;;
56429;SDS011;42332;52.136;20.666;2023-02-28T04:46:36;42.28;;;12.60;;
56429;SDS011;42332;52.136;20.666;2023-02-28T04:49:02;24.05;;;10.77;;
56429;SDS011;42332;52.136;20.666;2023-02-28T04:51:27;31.30;;;13.35;;
56429;SDS011;42332;52.136;20.666;2023-02-28T04:53:53;37.58;;;14.40;;
56429;SDS011;42332;52.136;20.666;2023-02-28T04:56:18;19.05;;;11.27;;
56429;SDS011;42332;52.136;20.666;2023-02-28T04:58:44;38.70;;;12.77;;
56429;SDS011;42332;52.136;20.666;2023-02-28T05:01:20;29.30;;;11.13;;
56429;SDS011;42332;52.136;20.666;2023-02-28T05:03:50;56.55;;;15.77;;
56429;SDS011;42332;52.136;20.666;2023-02-28T05:06:16;23.60;;;11.27;;
56429;SDS011;42332;52.136;20.666;2023-02-28T05:08:42;31.85;;;15.18;;
56429;SDS011;42332;52.136;20.666;2023-02-28T05:11:12;33.85;;;14.40;;
56429;SDS011;42332;52.136;20.666;2023-02-28T05:13:39;33.42;;;15.20;;
56429;SDS011;42332;52.136;20.666;2023-02-28T05:16:05;34.53;;;15.18;;
56429;SDS011;42332;52.136;20.666;2023-02-28T05:18:30;45.13;;;17.35;;
56429;SDS011;42332;52.136;20.666;2023-02-28T05:20:56;46.17;;;19.20;;
56429;SDS011;42332;52.136;20.666;2023-02-28T05:23:21;55.72;;;17.40;;
56429;SDS011;42332;52.136;20.666;2023-02-28T05:25:47;43.13;;;17.20;;
56429;SDS011;42332;52.136;20.666;2023-02-28T05:28:13;37.10;;;15.90;;
56429;SDS011;42332;52.136;20.666;2023-02-28T05:30:39;31.40;;;15.57;;
56429;SDS011;42332;52.136;20.666;2023-02-28T05:33:04;54.40;;;14.25;;
56429;SDS011;42332;52.136;20.666;2023-02-28T05:35:30;43.90;;;16.42;;
56429;SDS011;42332;52.136;20.666;2023-02-28T05:37:55;37.40;;;15.40;;
56429;SDS011;42332;52.136;20.666;2023-02-28T05:40:20;43.13;;;16.73;;
56429;SDS011;42332;52.136;20.666;2023-02-28T05:42:46;28.40;;;13.18;;
56429;SDS011;42332;52.136;20.666;2023-02-28T05:45:12;36.30;;;15.80;;
56429;SDS011;42332;52.136;20.666;2023-02-28T05:47:37;41.58;;;14.77;;
56429;SDS011;42332;52.136;20.666;2023-02-28T05:50:03;40.13;;;14.23;;
56429;SDS011;42332;52.136;20.666;2023-02-28T05:52:29;27.55;;;12.00;;
56429;SDS011;42332;52.136;20.666;2023-02-28T05:54:55;36.88;;;15.05;;
56429;SDS011;42332;52.136;20.666;2023-02-28T05:57:20;30.20;;;15.90;;
56429;SDS011;42332;52.136;20.666;2023-02-28T05:59:46;28.80;;;14.80;;
56429;SDS011;42332;52.136;20.666;2023-02-28T06:02:15;39.38;;;15.50;;
56429;SDS011;42332;52.136;20.666;2023-02-28T06:04:41;54.75;;;17.05;;
56429;SDS011;42332;52.136;20.666;2023-02-28T06:07:07;36.28;;;18.17;;
56429;SDS011;42332;52.136;20.666;2023-02-28T06:09:33;37.20;;;15.95;;
56429;SDS011;42332;52.136;20.666;2023-02-28T06:11:59;34.05;;;19.30;;
56429;SDS011;42332;52.136;20.666;2023-02-28T06:14:25;44.85;;;21.23;;
56429;SDS011;42332;52.136;20.666;2023-02-28T06:16:51;53.53;;;15.93;;
56429;SDS011;42332;52.136;20.666;2023-02-28T06:19:16;42.20;;;18.15;;
56429;SDS011;42332;52.136;20.666;2023-02-28T06:21:42;44.60;;;19.70;;
56429;SDS011;42332;52.136;20.666;2023-02-28T06:24:08;52.88;;;19.75;;
56429;SDS011;42332;52.136;20.666;2023-02-28T06:26:33;48.38;;;18.85;;
56429;SDS011;42332;52.136;20.666;2023-02-28T06:28:59;41.33;;;19.15;;
56429;SDS011;42332;52.136;20.666;2023-02-28T06:31:25;39.67;;;16.35;;
56429;SDS011;42332;52.136;20.666;2023-02-28T06:33:51;49.83;;;19.35;;
56429;SDS011;42332;52.136;20.666;2023-02-28T06:36:17;54.88;;;20.23;;
56429;SDS011;42332;52.136;20.666;2023-02-28T06:38:43;44.05;;;18.58;;
56429;SDS011;42332;52.136;20.666;2023-02-28T06:41:09;39.05;;;18.85;;
56429;SDS011;42332;52.136;20.666;2023-02-28T06:43:36;39.47;;;15.73;;
56429;SDS011;42332;52.136;20.666;2023-02-28T06:46:04;44.03;;;19.67;;
56429;SDS011;42332;52.136;20.666;2023-02-28T06:48:31;43.75;;;22.17;;
56429;SDS011;42332;52.136;20.666;2023-02-28T06:51:07;33.35;;;16.67;;
56429;SDS011;42332;52.136;20.666;2023-02-28T06:53:34;49.05;;;17.30;;
56429;SDS011;42332;52.136;20.666;2023-02-28T06:56:03;28.60;;;13.68;;
56429;SDS011;42332;52.136;20.666;2023-02-28T06:58:30;30.35;;;14.15;;
56429;SDS011;42332;52.136;20.666;2023-02-28T07:00:55;33.78;;;14.70;;
56429;SDS011;42332;52.136;20.666;2023-02-28T07:03:21;34.70;;;17.70;;
56429;SDS011;42332;52.136;20.666;2023-02-28T07:05:46;29.52;;;15.13;;
56429;SDS011;42332;52.136;20.666;2023-02-28T07:08:11;30.80;;;15.32;;
56429;SDS011;42332;52.136;20.666;2023-02-28T07:10:37;33.90;;;14.98;;
56429;SDS011;42332;52.136;20.666;2023-02-28T07:13:03;32.20;;;12.95;;
56429;SDS011;42332;52.136;20.666;2023-02-28T07:15:29;27.77;;;12.07;;
56429;SDS011;42332;52.136;20.666;2023-02-28T07:17:54;25.20;;;12.32;;
56429;SDS011;42332;52.136;20.666;2023-02-28T07:20:21;21.17;;;11.90;;
56429;SDS011;42332;52.136;20.666;2023-02-28T07:22:47;23.73;;;11.45;;
56429;SDS011;42332;52.136;20.666;2023-02-28T07:25:20;25.10;;;12.85;;
56429;SDS011;42332;52.136;20.666;2023-02-28T07:27:45;27.95;;;11.93;;
56429;SDS011;42332;52.136;20.666;2023-02-28T07:30:11;31.48;;;13.13;;
56429;SDS011;42332;52.136;20.666;2023-02-28T07:32:37;38.13;;;12.32;;
56429;SDS011;42332;52.136;20.666;2023-02-28T07:35:02;25.88;;;12.63;;
56429;SDS011;42332;52.136;20.666;2023-02-28T07:37:28;22.50;;;11.60;;
56429;SDS011;42332;52.136;20.666;2023-02-28T07:39:56;22.92;;;12.68;;
56429;SDS011;42332;52.136;20.666;2023-02-28T07:42:21;29.63;;;10.90;;
56429;SDS011;42332;52.136;20.666;2023-02-28T07:44:47;23.63;;;10.55;;
56429;SDS011;42332;52.136;20.666;2023-02-28T07:47:12;30.92;;;10.32;;
56429;SDS011;42332;52.136;20.666;2023-02-28T07:49:37;20.70;;;9.50;;
56429;SDS011;42332;52.136;20.666;2023-02-28T07:52:03;22.52;;;10.02;;
56429;SDS011;42332;52.136;20.666;2023-02-28T07:54:30;18.17;;;8.25;;
56429;SDS011;42332;52.136;20.666;2023-02-28T07:56:55;25.48;;;9.75;;
56429;SDS011;42332;52.136;20.666;2023-02-28T07:59:20;18.27;;;7.38;;
56429;SDS011;42332;52.136;20.666;2023-02-28T08:01:46;14.35;;;6.88;;
56429;SDS011;42332;52.136;20.666;2023-02-28T08:04:11;11.32;;;5.68;;
56429;SDS011;42332;52.136;20.666;2023-02-28T08:06:36;19.67;;;7.53;;
56429;SDS011;42332;52.136;20.666;2023-02-28T08:09:02;10.48;;;5.20;;
56429;SDS011;42332;52.136;20.666;2023-02-28T08:11:27;13.30;;;5.47;;
56429;SDS011;42332;52.136;20.666;2023-02-28T08:13:54;17.10;;;5.78;;
56429;SDS011;42332;52.136;20.666;2023-02-28T08:16:19;16.05;;;6.78;;
56429;SDS011;42332;52.136;20.666;2023-02-28T08:18:47;10.32;;;4.82;;
56429;SDS011;42332;52.136;20.666;2023-02-28T08:21:14;11.25;;;4.45;;
56429;SDS011;42332;52.136;20.666;2023-02-28T08:23:39;12.23;;;5.57;;
56429;SDS011;42332;52.136;20.666;2023-02-28T08:26:04;15.45;;;5.75;;
56429;SDS011;42332;52.136;20.666;2023-02-28T08:28:30;12.10;;;5.70;;
56429;SDS011;42332;52.136;20.666;2023-02-28T08:30:55;16.15;;;4.38;;
56429;SDS011;42332;52.136;20.666;2023-02-28T08:33:21;10.52;;;4.07;;
56429;SDS011;42332;52.136;20.666;2023-02-28T08:35:47;14.90;;;4.40;;
56429;SDS011;42332;52.136;20.666;2023-02-28T08:38:13;26.00;;;6.68;;
56429;SDS011;42332;52.136;20.666;2023-02-28T08:40:38;9.57;;;5.13;;
56429;SDS011;42332;52.136;20.666;2023-02-28T08:43:03;15.30;;;5.45;;
56429;SDS011;42332;52.136;20.666;2023-02-28T08:45:29;19.00;;;5.07;;
56429;SDS011;42332;52.136;20.666;2023-02-28T08:47:54;10.10;;;4.65;;
56429;SDS011;42332;52.136;20.666;2023-02-28T08:50:20;13.48;;;5.47;;
56429;SDS011;42332;52.136;20.666;2023-02-28T08:52:46;9.15;;;3.20;;
56429;SDS011;42332;52.136;20.666;2023-02-28T08:55:12;21.60;;;4.60;;
56429;SDS011;42332;52.136;20.666;2023-02-28T08:57:37;16.30;;;4.30;;
56429;SDS011;42332;52.136;20.666;2023-02-28T09:00:03;11.88;;;4.30;;
56429;SDS011;42332;52.136;20.666;2023-02-28T09:02:30;10.88;;;3.90;;
56429;SDS011;42332;52.136;20.666;2023-02-28T09:04:56;17.83;;;5.53;;
56429;SDS011;42332;52.136;20.666;2023-02-28T09:07:23;30.13;;;5.75;;
56429;SDS011;42332;52.136;20.666;2023-02-28T09:09:48;9.55;;;5.18;;
56429;SDS011;42332;52.136;20.666;2023-02-28T09:12:22;10.80;;;5.93;;
56429;SDS011;42332;52.136;20.666;2023-02-28T09:14:49;8.15;;;3.22;;
56429;SDS011;42332;52.136;20.666;2023-02-28T09:17:15;8.05;;;4.38;;
56429;SDS011;42332;52.136;20.666;2023-02-28T09:19:40;13.88;;;5.55;;
56429;SDS011;42332;52.136;20.666;2023-02-28T09:22:06;12.48;;;5.47;;
56429;SDS011;42332;52.136;20.666;2023-02-28T09:24:31;13.60;;;5.53;;
56429;SDS011;42332;52.136;20.666;2023-02-28T09:26:56;22.77;;;6.72;;
56429;SDS011;42332;52.136;20.666;2023-02-28T09:29:22;9.52;;;4.95;;
56429;SDS011;42332;52.136;20.666;2023-02-28T09:31:47;9.30;;;4.63;;
56429;SDS011;42332;52.136;20.666;2023-02-28T09:34:13;11.80;;;5.18;;
56429;SDS011;42332;52.136;20.666;2023-02-28T09:36:38;9.40;;;4.78;;
56429;SDS011;42332;52.136;20.666;2023-02-28T09:39:03;16.02;;;5.78;;
56429;SDS011;42332;52.136;20.666;2023-02-28T09:41:30;20.48;;;8.00;;
56429;SDS011;42332;52.136;20.666;2023-02-28T09:44:04;10.60;;;4.83;;
56429;SDS011;42332;52.136;20.666;2023-02-28T09:46:31;10.43;;;4.60;;
56429;SDS011;42332;52.136;20.666;2023-02-28T09:49:00;12.13;;;5.18;;
56429;SDS011;42332;52.136;20.666;2023-02-28T09:51:30;12.00;;;5.43;;
56429;SDS011;42332;52.136;20.666;2023-02-28T09:54:00;11.00;;;4.10;;
56429;SDS011;42332;52.136;20.666;2023-02-28T09:56:36;11.15;;;4.80;;
56429;SDS011;42332;52.136;20.666;2023-02-28T09:59:04;11.63;;;5.72;;
56429;SDS011;42332;52.136;20.666;2023-02-28T10:01:54;11.57;;;5.13;;
56429;SDS011;42332;52.136;20.666;2023-02-28T10:04:33;11.88;;;5.38;;
56429;SDS011;42332;52.136;20.666;2023-02-28T10:10:04;13.30;;;4.20;;
56429;SDS011;42332;52.136;20.666;2023-02-28T10:12:40;14.88;;;5.00;;
56429;SDS011;42332;52.136;20.666;2023-02-28T10:15:12;14.32;;;4.85;;
56429;SDS011;42332;52.136;20.666;2023-02-28T10:17:40;12.98;;;4.78;;
56429;SDS011;42332;52.136;20.666;2023-02-28T10:22:46;13.20;;;5.25;;
56429;SDS011;42332;52.136;20.666;2023-02-28T10:25:27;13.68;;;6.78;;
56429;SDS011;42332;52.136;20.666;2023-02-28T10:27:53;10.75;;;4.80;;
56429;SDS011;42332;52.136;20.666;2023-02-28T10:30:21;14.15;;;5.07;;
56429;SDS011;42332;52.136;20.666;2023-02-28T10:32:51;15.60;;;5.47;;
56429;SDS011;42332;52.136;20.666;2023-02-28T10:35:21;8.20;;;4.53;;
56429;SDS011;42332;52.136;20.666;2023-02-28T10:37:49;11.55;;;4.88;;
56429;SDS011;42332;52.136;20.666;2023-02-28T10:42:42;16.73;;;5.25;;
56429;SDS011;42332;52.136;20.666;2023-02-28T10:45:12;11.82;;;5.28;;
56429;SDS011;42332;52.136;20.666;2023-02-28T11:01:14;10.73;;;4.57;;
56429;SDS011;42332;52.136;20.666;2023-02-28T11:03:41;14.30;;;5.00;;
56429;SDS011;42332;52.136;20.666;2023-02-28T11:06:08;12.05;;;5.45;;
56429;SDS011;42332;52.136;20.666;2023-02-28T11:09:14;12.15;;;5.18;;
56429;SDS011;42332;52.136;20.666;2023-02-28T11:11:41;16.33;;;6.32;;
56429;SDS011;42332;52.136;20.666;2023-02-28T11:16:39;9.38;;;3.88;;
56429;SDS011;42332;52.136;20.666;2023-02-28T11:19:06;6.97;;;3.42;;
56429;SDS011;42332;52.136;20.666;2023-02-28T11:21:45;8.38;;;4.65;;
56429;SDS011;42332;52.136;20.666;2023-02-28T11:24:21;15.52;;;5.40;;
56429;SDS011;42332;52.136;20.666;2023-02-28T11:26:49;7.75;;;4.22;;
56429;SDS011;42332;52.136;20.666;2023-02-28T11:29:17;10.23;;;4.65;;
56429;SDS011;42332;52.136;20.666;2023-02-28T11:32:00;15.77;;;5.28;;
56429;SDS011;42332;52.136;20.666;2023-02-28T11:34:27;11.75;;;4.90;;
56429;SDS011;42332;52.136;20.666;2023-02-28T11:36:54;13.45;;;4.85;;
56429;SDS011;42332;52.136;20.666;2023-02-28T11:39:21;12.65;;;5.63;;
56429;SDS011;42332;52.136;20.666;2023-02-28T11:47:47;10.20;;;4.95;;
56429;SDS011;42332;52.136;20.666;2023-02-28T11:56:21;17.55;;;5.80;;
56429;SDS011;42332;52.136;20.666;2023-02-28T12:04:24;21.15;;;6.85;;
56429;SDS011;42332;52.136;20.666;2023-02-28T12:12:20;13.27;;;5.63;;
56429;SDS011;42332;52.136;20.666;2023-02-28T12:14:54;14.52;;;5.13;;
56429;SDS011;42332;52.136;20.666;2023-02-28T12:17:50;12.60;;;5.57;;
56429;SDS011;42332;52.136;20.666;2023-02-28T12:28:52;15.45;;;5.38;;
56429;SDS011;42332;52.136;20.666;2023-02-28T12:31:33;11.48;;;4.97;;
56429;SDS011;42332;52.136;20.666;2023-02-28T12:34:06;11.40;;;4.25;;
56429;SDS011;42332;52.136;20.666;2023-02-28T12:39:04;13.30;;;4.93;;
56429;SDS011;42332;52.136;20.666;2023-02-28T12:47:03;9.30;;;3.65;;
56429;SDS011;42332;52.136;20.666;2023-02-28T12:49:31;9.75;;;3.65;;
56429;SDS011;42332;52.136;20.666;2023-02-28T12:52:00;11.55;;;4.95;;
56429;SDS011;42332;52.136;20.666;2023-02-28T12:54:32;14.35;;;6.97;;
56429;SDS011;42332;52.136;20.666;2023-02-28T13:08:31;19.52;;;6.22;;
56429;SDS011;42332;52.136;20.666;2023-02-28T13:11:24;13.15;;;5.57;;
56429;SDS011;42332;52.136;20.666;2023-02-28T13:14:23;13.43;;;5.32;;
56429;SDS011;42332;52.136;20.666;2023-02-28T13:22:00;14.20;;;5.63;;
56429;SDS011;42332;52.136;20.666;2023-02-28T13:24:46;15.10;;;5.47;;
56429;SDS011;42332;52.136;20.666;2023-02-28T13:29:48;17.98;;;5.60;;
56429;SDS011;42332;52.136;20.666;2023-02-28T13:39:51;10.98;;;4.97;;
56429;SDS011;42332;52.136;20.666;2023-02-28T13:47:42;13.38;;;5.43;;
56429;SDS011;42332;52.136;20.666;2023-02-28T13:53:01;10.05;;;4.22;;
56429;SDS011;42332;52.136;20.666;2023-02-28T14:04:09;12.77;;;4.57;;
56429;SDS011;42332;52.136;20.666;2023-02-28T14:06:47;10.40;;;4.25;;
56429;SDS011;42332;52.136;20.666;2023-02-28T14:09:29;14.30;;;6.07;;
56429;SDS011;42332;52.136;20.666;2023-02-28T14:15:01;13.60;;;5.70;;
56429;SDS011;42332;52.136;20.666;2023-02-28T14:17:26;11.57;;;5.38;;
56429;SDS011;42332;52.136;20.666;2023-02-28T14:19:52;12.70;;;6.13;;
56429;SDS011;42332;52.136;20.666;2023-02-28T14:22:42;17.13;;;6.95;;
56429;SDS011;42332;52.136;20.666;2023-02-28T14:25:32;13.00;;;5.57;;
56429;SDS011;42332;52.136;20.666;2023-02-28T14:31:02;13.00;;;5.85;;
56429;SDS011;42332;52.136;20.666;2023-02-28T14:36:41;15.93;;;5.65;;
56429;SDS011;42332;52.136;20.666;2023-02-28T14:39:14;10.60;;;4.95;;
56429;SDS011;42332;52.136;20.666;2023-02-28T14:41:41;18.05;;;6.45;;
56429;SDS011;42332;52.136;20.666;2023-02-28T14:44:24;17.85;;;6.07;;
56429;SDS011;42332;52.136;20.666;2023-02-28T14:46:54;17.85;;;6.50;;
56429;SDS011;42332;52.136;20.666;2023-02-28T14:49:21;7.65;;;4.10;;
56429;SDS011;42332;52.136;20.666;2023-02-28T14:52:01;18.77;;;6.35;;
56429;SDS011;42332;52.136;20.666;2023-02-28T14:54:53;13.23;;;6.30;;
56429;SDS011;42332;52.136;20.666;2023-02-28T14:57:27;19.75;;;6.53;;
56429;SDS011;42332;52.136;20.666;2023-02-28T15:00:00;14.23;;;5.82;;
56429;SDS011;42332;52.136;20.666;2023-02-28T15:02:36;13.45;;;5.75;;
56429;SDS011;42332;52.136;20.666;2023-02-28T15:07:46;17.60;;;7.25;;
56429;SDS011;42332;52.136;20.666;2023-02-28T15:15:25;13.93;;;5.88;;
56429;SDS011;42332;52.136;20.666;2023-02-28T15:18:06;18.65;;;6.95;;
56429;SDS011;42332;52.136;20.666;2023-02-28T15:20:32;16.73;;;7.25;;
56429;SDS011;42332;52.136;20.666;2023-02-28T15:22:58;18.73;;;7.40;;
56429;SDS011;42332;52.136;20.666;2023-02-28T15:25:24;20.73;;;8.38;;
56429;SDS011;42332;52.136;20.666;2023-02-28T15:27:50;20.80;;;7.28;;
56429;SDS011;42332;52.136;20.666;2023-02-28T15:30:39;16.23;;;7.22;;
56429;SDS011;42332;52.136;20.666;2023-02-28T15:33:17;15.23;;;6.65;;
56429;SDS011;42332;52.136;20.666;2023-02-28T15:35:45;22.25;;;9.25;;
56429;SDS011;42332;52.136;20.666;2023-02-28T15:40:43;52.75;;;21.33;;
56429;SDS011;42332;52.136;20.666;2023-02-28T15:43:17;74.65;;;27.40;;
56429;SDS011;42332;52.136;20.666;2023-02-28T15:46:05;99.18;;;35.38;;
56429;SDS011;42332;52.136;20.666;2023-02-28T15:53:49;36.10;;;14.63;;
56429;SDS011;42332;52.136;20.666;2023-02-28T15:58:48;23.52;;;9.45;;
56429;SDS011;42332;52.136;20.666;2023-02-28T16:01:23;26.02;;;10.88;;
56429;SDS011;42332;52.136;20.666;2023-02-28T16:03:51;25.52;;;11.55;;
56429;SDS011;42332;52.136;20.666;2023-02-28T16:09:09;21.75;;;8.27;;
56429;SDS011;42332;52.136;20.666;2023-02-28T16:11:44;20.58;;;9.43;;
56429;SDS011;42332;52.136;20.666;2023-02-28T16:14:12;28.63;;;10.60;;
56429;SDS011;42332;52.136;20.666;2023-02-28T16:16:44;25.25;;;10.30;;
56429;SDS011;42332;52.136;20.666;2023-02-28T16:19:11;23.70;;;9.45;;
56429;SDS011;42332;52.136;20.666;2023-02-28T16:21:36;22.75;;;9.52;;
56429;SDS011;42332;52.136;20.666;2023-02-28T16:24:01;25.27;;;10.93;;
56429;SDS011;42332;52.136;20.666;2023-02-28T16:26:27;23.73;;;10.40;;
56429;SDS011;42332;52.136;20.666;2023-02-28T16:28:53;25.70;;;9.32;;
56429;SDS011;42332;52.136;20.666;2023-02-28T16:31:19;17.83;;;7.93;;
56429;SDS011;42332;52.136;20.666;2023-02-28T16:33:44;18.58;;;7.35;;
56429;SDS011;42332;52.136;20.666;2023-02-28T16:36:17;26.73;;;9.80;;
56429;SDS011;42332;52.136;20.666;2023-02-28T16:38:45;25.63;;;10.57;;
56429;SDS011;42332;52.136;20.666;2023-02-28T16:41:31;26.30;;;11.13;;
56429;SDS011;42332;52.136;20.666;2023-02-28T16:43:56;19.75;;;8.95;;
56429;SDS011;42332;52.136;20.666;2023-02-28T16:46:25;24.40;;;10.68;;
56429;SDS011;42332;52.136;20.666;2023-02-28T16:48:52;21.00;;;8.77;;
56429;SDS011;42332;52.136;20.666;2023-02-28T16:51:18;32.92;;;12.27;;
56429;SDS011;42332;52.136;20.666;2023-02-28T16:53:44;57.60;;;18.10;;
56429;SDS011;42332;52.136;20.666;2023-02-28T16:56:19;69.82;;;24.48;;
56429;SDS011;42332;52.136;20.666;2023-02-28T16:58:46;151.68;;;46.22;;
56429;SDS011;42332;52.136;20.666;2023-02-28T17:01:12;245.15;;;63.30;;